Aviation Digital Data Service (ADDS)

Output produced by METARs form (0117 UTC 20 January 2018)
found at http://aviationweather.gov/adds/metars/
 
WADL 200100Z 34006KT 300V360 5000 -RA BKN016 25/24 Q1008 TEMPO TL0200 -RA
WADL 200030Z 31010KT 0500 RA BKN016 24/24 Q1008 TEMPO TL0130 RA
WADL 200000Z 34005KT 5000 -RA BKN016 25/24 Q1008 TEMPO TL0100 -RA
WADL 192330Z 35005KT 4000 -RA BKN016 25/24 Q1007 TEMPO TL2400 -RA
WADL 192300Z 35005KT 4000 -RA BKN016 25/24 Q1007 TEMPO TL2330 -RA
WADL 192230Z 36003KT 3000 -RA BKN016 25/24 Q1007 TEMPO TL2330 -RA